sensor_id;sensor_type;location;lat;lon;timestamp;pressure;altitude;pressure_sealevel;temperature;humidity
12879;BME280;20617;49.476;10.986;2023-08-06T00:00:57;97624.16;;;17.43;100.00
12879;BME280;20617;49.476;10.986;2023-08-06T00:03:03;97630.41;;;17.31;100.00
12879;BME280;20617;49.476;10.986;2023-08-06T00:05:08;97631.50;;;17.17;100.00
12879;BME280;20617;49.476;10.986;2023-08-06T00:07:13;97640.38;;;17.05;100.00
12879;BME280;20617;49.476;10.986;2023-08-06T00:09:18;97639.16;;;17.09;100.00
12879;BME280;20617;49.476;10.986;2023-08-06T00:11:23;97645.97;;;17.01;100.00
12879;BME280;20617;49.476;10.986;2023-08-06T00:13:28;97646.59;;;16.93;100.00
12879;BME280;20617;49.476;10.986;2023-08-06T00:15:38;97643.56;;;16.97;100.00
12879;BME280;20617;49.476;10.986;2023-08-06T00:17:43;97632.81;;;17.01;100.00
12879;BME280;20617;49.476;10.986;2023-08-06T00:19:48;97641.91;;;16.96;100.00
12879;BME280;20617;49.476;10.986;2023-08-06T00:21:50;97634.50;;;17.02;100.00
12879;BME280;20617;49.476;10.986;2023-08-06T00:23:55;97630.44;;;17.09;100.00
12879;BME280;20617;49.476;10.986;2023-08-06T00:26:00;97619.78;;;17.10;100.00
12879;BME280;20617;49.476;10.986;2023-08-06T00:28:05;97631.84;;;17.13;100.00
12879;BME280;20617;49.476;10.986;2023-08-06T00:30:11;97623.13;;;17.12;100.00
12879;BME280;20617;49.476;10.986;2023-08-06T00:32:18;97620.38;;;17.25;100.00
12879;BME280;20617;49.476;10.986;2023-08-06T00:34:23;97607.94;;;17.16;100.00
12879;BME280;20617;49.476;10.986;2023-08-06T00:36:28;97595.50;;;17.29;100.00
12879;BME280;20617;49.476;10.986;2023-08-06T00:38:35;97580.75;;;17.38;100.00
12879;BME280;20617;49.476;10.986;2023-08-06T00:40:40;97575.88;;;17.33;100.00
12879;BME280;20617;49.476;10.986;2023-08-06T00:42:45;97570.47;;;17.46;100.00
12879;BME280;20617;49.476;10.986;2023-08-06T00:44:50;97568.63;;;17.58;100.00
12879;BME280;20617;49.476;10.986;2023-08-06T00:46:55;97572.06;;;17.70;100.00
12879;BME280;20617;49.476;10.986;2023-08-06T00:49:03;97562.03;;;17.63;100.00
12879;BME280;20617;49.476;10.986;2023-08-06T00:51:10;97569.38;;;17.49;100.00
12879;BME280;20617;49.476;10.986;2023-08-06T00:53:15;97572.00;;;17.49;100.00
12879;BME280;20617;49.476;10.986;2023-08-06T00:55:20;97579.19;;;17.47;100.00
12879;BME280;20617;49.476;10.986;2023-08-06T00:57:25;97578.47;;;17.45;100.00
12879;BME280;20617;49.476;10.986;2023-08-06T00:59:28;97580.50;;;17.52;100.00
12879;BME280;20617;49.476;10.986;2023-08-06T01:01:33;97585.81;;;17.62;100.00
12879;BME280;20617;49.476;10.986;2023-08-06T01:03:36;97592.53;;;17.66;100.00
12879;BME280;20617;49.476;10.986;2023-08-06T01:05:44;97574.22;;;17.64;100.00
12879;BME280;20617;49.476;10.986;2023-08-06T01:08:01;97571.72;;;17.63;100.00
12879;BME280;20617;49.476;10.986;2023-08-06T01:10:22;97567.94;;;17.45;100.00
12879;BME280;20617;49.476;10.986;2023-08-06T01:12:34;97566.78;;;17.37;100.00
12879;BME280;20617;49.476;10.986;2023-08-06T01:14:52;97571.09;;;17.27;100.00
12879;BME280;20617;49.476;10.986;2023-08-06T01:16:58;97577.09;;;17.18;100.00
12879;BME280;20617;49.476;10.986;2023-08-06T01:19:04;97579.50;;;17.10;100.00
12879;BME280;20617;49.476;10.986;2023-08-06T01:21:12;97575.31;;;17.07;100.00
12879;BME280;20617;49.476;10.986;2023-08-06T01:23:17;97579.63;;;17.08;100.00
12879;BME280;20617;49.476;10.986;2023-08-06T01:25:27;97576.19;;;17.08;100.00
12879;BME280;20617;49.476;10.986;2023-08-06T01:27:39;97566.09;;;17.13;100.00
12879;BME280;20617;49.476;10.986;2023-08-06T01:29:56;97561.47;;;17.16;100.00
12879;BME280;20617;49.476;10.986;2023-08-06T01:32:05;97559.28;;;17.10;100.00
12879;BME280;20617;49.476;10.986;2023-08-06T01:34:15;97555.81;;;17.21;100.00
12879;BME280;20617;49.476;10.986;2023-08-06T01:36:26;97549.31;;;17.36;100.00
12879;BME280;20617;49.476;10.986;2023-08-06T01:38:34;97534.50;;;17.35;100.00
12879;BME280;20617;49.476;10.986;2023-08-06T01:40:36;97531.38;;;17.30;100.00
12879;BME280;20617;49.476;10.986;2023-08-06T01:42:41;97524.34;;;17.31;100.00
12879;BME280;20617;49.476;10.986;2023-08-06T01:44:47;97518.63;;;17.26;100.00
12879;BME280;20617;49.476;10.986;2023-08-06T01:46:52;97511.09;;;17.21;100.00
12879;BME280;20617;49.476;10.986;2023-08-06T01:48:57;97519.13;;;17.19;100.00
12879;BME280;20617;49.476;10.986;2023-08-06T01:51:03;97515.03;;;17.27;100.00
12879;BME280;20617;49.476;10.986;2023-08-06T01:53:11;97517.97;;;17.33;100.00
12879;BME280;20617;49.476;10.986;2023-08-06T01:55:16;97510.69;;;17.37;100.00
12879;BME280;20617;49.476;10.986;2023-08-06T01:57:23;97512.00;;;17.42;100.00
12879;BME280;20617;49.476;10.986;2023-08-06T01:59:28;97511.06;;;17.32;100.00
12879;BME280;20617;49.476;10.986;2023-08-06T02:01:33;97521.00;;;17.29;100.00
12879;BME280;20617;49.476;10.986;2023-08-06T02:03:38;97522.91;;;17.27;100.00
12879;BME280;20617;49.476;10.986;2023-08-06T02:05:44;97518.63;;;17.26;100.00
12879;BME280;20617;49.476;10.986;2023-08-06T02:07:52;97523.13;;;17.35;100.00
12879;BME280;20617;49.476;10.986;2023-08-06T02:10:00;97518.59;;;17.37;100.00
12879;BME280;20617;49.476;10.986;2023-08-06T02:12:06;97507.84;;;17.29;100.00
12879;BME280;20617;49.476;10.986;2023-08-06T02:14:11;97505.72;;;17.23;100.00
12879;BME280;20617;49.476;10.986;2023-08-06T02:16:16;97507.38;;;17.24;100.00
12879;BME280;20617;49.476;10.986;2023-08-06T02:18:24;97506.78;;;17.31;100.00
12879;BME280;20617;49.476;10.986;2023-08-06T02:20:29;97499.31;;;17.36;100.00
12879;BME280;20617;49.476;10.986;2023-08-06T02:22:35;97485.72;;;17.31;100.00
12879;BME280;20617;49.476;10.986;2023-08-06T02:24:37;97485.84;;;17.30;100.00
12879;BME280;20617;49.476;10.986;2023-08-06T02:26:47;97466.84;;;17.26;100.00
12879;BME280;20617;49.476;10.986;2023-08-06T02:28:53;97480.00;;;17.26;100.00
12879;BME280;20617;49.476;10.986;2023-08-06T02:30:55;97483.50;;;17.15;100.00
12879;BME280;20617;49.476;10.986;2023-08-06T02:33:01;97484.25;;;17.06;100.00
12879;BME280;20617;49.476;10.986;2023-08-06T02:35:06;97483.91;;;17.00;100.00
12879;BME280;20617;49.476;10.986;2023-08-06T02:37:13;97477.88;;;16.77;100.00
12879;BME280;20617;49.476;10.986;2023-08-06T02:39:19;97468.19;;;16.77;100.00
12879;BME280;20617;49.476;10.986;2023-08-06T02:41:27;97464.81;;;16.86;100.00
12879;BME280;20617;49.476;10.986;2023-08-06T02:43:34;97461.56;;;16.94;100.00
12879;BME280;20617;49.476;10.986;2023-08-06T02:45:39;97462.63;;;17.03;100.00
12879;BME280;20617;49.476;10.986;2023-08-06T02:47:45;97456.00;;;16.87;100.00
12879;BME280;20617;49.476;10.986;2023-08-06T02:49:53;97463.38;;;16.93;100.00
12879;BME280;20617;49.476;10.986;2023-08-06T02:51:59;97468.03;;;16.90;100.00
12879;BME280;20617;49.476;10.986;2023-08-06T02:54:04;97462.06;;;16.88;100.00
12879;BME280;20617;49.476;10.986;2023-08-06T02:56:10;97456.44;;;16.92;100.00
12879;BME280;20617;49.476;10.986;2023-08-06T02:58:34;97463.59;;;17.02;100.00
12879;BME280;20617;49.476;10.986;2023-08-06T03:01:02;97467.75;;;17.04;100.00
12879;BME280;20617;49.476;10.986;2023-08-06T03:03:16;97458.41;;;17.11;100.00
12879;BME280;20617;49.476;10.986;2023-08-06T03:05:28;97448.13;;;17.19;100.00
12879;BME280;20617;49.476;10.986;2023-08-06T03:07:34;97444.97;;;17.26;100.00
12879;BME280;20617;49.476;10.986;2023-08-06T03:09:53;97438.50;;;17.30;100.00
12879;BME280;20617;49.476;10.986;2023-08-06T03:11:58;97439.31;;;17.30;100.00
12879;BME280;20617;49.476;10.986;2023-08-06T03:14:05;97429.88;;;17.28;100.00
12879;BME280;20617;49.476;10.986;2023-08-06T03:16:14;97429.19;;;17.26;100.00
12879;BME280;20617;49.476;10.986;2023-08-06T03:18:22;97436.94;;;17.27;100.00
12879;BME280;20617;49.476;10.986;2023-08-06T03:20:31;97431.94;;;17.24;100.00
12879;BME280;20617;49.476;10.986;2023-08-06T03:22:36;97431.09;;;17.24;100.00
12879;BME280;20617;49.476;10.986;2023-08-06T03:24:50;97432.66;;;17.26;100.00
12879;BME280;20617;49.476;10.986;2023-08-06T03:26:59;97426.56;;;17.26;100.00
12879;BME280;20617;49.476;10.986;2023-08-06T03:29:08;97427.91;;;17.20;100.00
12879;BME280;20617;49.476;10.986;2023-08-06T03:31:16;97430.66;;;17.18;100.00
12879;BME280;20617;49.476;10.986;2023-08-06T03:33:22;97435.91;;;17.18;100.00
12879;BME280;20617;49.476;10.986;2023-08-06T03:35:30;97435.91;;;17.18;100.00
12879;BME280;20617;49.476;10.986;2023-08-06T03:37:35;97432.69;;;17.15;100.00
12879;BME280;20617;49.476;10.986;2023-08-06T03:39:41;97434.03;;;17.09;100.00
12879;BME280;20617;49.476;10.986;2023-08-06T03:41:46;97432.47;;;17.07;100.00
12879;BME280;20617;49.476;10.986;2023-08-06T03:43:54;97431.31;;;17.00;100.00
12879;BME280;20617;49.476;10.986;2023-08-06T03:46:03;97432.91;;;16.91;100.00
12879;BME280;20617;49.476;10.986;2023-08-06T03:48:09;97430.88;;;16.83;100.00
12879;BME280;20617;49.476;10.986;2023-08-06T03:50:13;97432.56;;;16.73;100.00
12879;BME280;20617;49.476;10.986;2023-08-06T03:52:23;97430.44;;;16.67;100.00
12879;BME280;20617;49.476;10.986;2023-08-06T03:54:28;97429.59;;;16.66;100.00
12879;BME280;20617;49.476;10.986;2023-08-06T03:56:31;97423.88;;;16.61;100.00
12879;BME280;20617;49.476;10.986;2023-08-06T03:58:36;97426.88;;;16.57;100.00
12879;BME280;20617;49.476;10.986;2023-08-06T04:00:42;97421.84;;;16.53;100.00
12879;BME280;20617;49.476;10.986;2023-08-06T04:02:49;97420.31;;;16.51;100.00
12879;BME280;20617;49.476;10.986;2023-08-06T04:04:57;97417.19;;;16.46;100.00
12879;BME280;20617;49.476;10.986;2023-08-06T04:07:03;97423.53;;;16.43;100.00
12879;BME280;20617;49.476;10.986;2023-08-06T04:09:08;97421.28;;;16.39;100.00
12879;BME280;20617;49.476;10.986;2023-08-06T04:11:13;97426.53;;;16.39;100.00
12879;BME280;20617;49.476;10.986;2023-08-06T04:13:19;97424.88;;;16.38;100.00
12879;BME280;20617;49.476;10.986;2023-08-06T04:15:23;97433.94;;;16.34;100.00
12879;BME280;20617;49.476;10.986;2023-08-06T04:17:28;97429.66;;;16.33;100.00
12879;BME280;20617;49.476;10.986;2023-08-06T04:19:36;97432.03;;;16.24;100.00
12879;BME280;20617;49.476;10.986;2023-08-06T04:21:42;97437.38;;;16.23;100.00
12879;BME280;20617;49.476;10.986;2023-08-06T04:23:47;97430.97;;;16.16;100.00
12879;BME280;20617;49.476;10.986;2023-08-06T04:25:56;97439.91;;;16.13;100.00
12879;BME280;20617;49.476;10.986;2023-08-06T04:28:06;97432.75;;;16.15;100.00
12879;BME280;20617;49.476;10.986;2023-08-06T04:30:15;97440.03;;;16.23;100.00
12879;BME280;20617;49.476;10.986;2023-08-06T04:32:22;97436.31;;;16.25;100.00
12879;BME280;20617;49.476;10.986;2023-08-06T04:34:30;97431.69;;;16.29;100.00
12879;BME280;20617;49.476;10.986;2023-08-06T04:36:39;97426.66;;;16.26;100.00
12879;BME280;20617;49.476;10.986;2023-08-06T04:38:44;97441.72;;;16.13;100.00
12879;BME280;20617;49.476;10.986;2023-08-06T04:40:51;97440.16;;;16.10;100.00
12879;BME280;20617;49.476;10.986;2023-08-06T04:42:57;97445.28;;;16.12;100.00
12879;BME280;20617;49.476;10.986;2023-08-06T04:45:06;97447.91;;;16.12;100.00
12879;BME280;20617;49.476;10.986;2023-08-06T04:47:12;97438.13;;;16.14;100.00
12879;BME280;20617;49.476;10.986;2023-08-06T04:49:20;97441.47;;;16.16;100.00
12879;BME280;20617;49.476;10.986;2023-08-06T04:51:25;97441.34;;;16.06;100.00
12879;BME280;20617;49.476;10.986;2023-08-06T04:53:33;97449.91;;;16.08;100.00
12879;BME280;20617;49.476;10.986;2023-08-06T04:55:41;97445.75;;;16.05;100.00
12879;BME280;20617;49.476;10.986;2023-08-06T04:57:47;97440.03;;;16.00;100.00
12879;BME280;20617;49.476;10.986;2023-08-06T04:59:52;97436.44;;;16.01;100.00
12879;BME280;20617;49.476;10.986;2023-08-06T05:01:59;97432.41;;;15.97;100.00
12879;BME280;20617;49.476;10.986;2023-08-06T05:04:04;97432.63;;;15.94;100.00
12879;BME280;20617;49.476;10.986;2023-08-06T05:06:13;97435.03;;;15.97;100.00
12879;BME280;20617;49.476;10.986;2023-08-06T05:08:25;97427.97;;;15.98;100.00
12879;BME280;20617;49.476;10.986;2023-08-06T05:10:35;97428.34;;;16.04;100.00
12879;BME280;20617;49.476;10.986;2023-08-06T05:12:40;97436.09;;;16.06;100.00
12879;BME280;20617;49.476;10.986;2023-08-06T05:14:45;97428.34;;;16.04;100.00
12879;BME280;20617;49.476;10.986;2023-08-06T05:16:50;97422.13;;;16.05;100.00
12879;BME280;20617;49.476;10.986;2023-08-06T05:18:55;97422.34;;;16.14;100.00
12879;BME280;20617;49.476;10.986;2023-08-06T05:21:00;97417.47;;;16.20;100.00
12879;BME280;20617;49.476;10.986;2023-08-06T05:23:05;97418.66;;;16.27;100.00
12879;BME280;20617;49.476;10.986;2023-08-06T05:25:09;97411.94;;;16.35;100.00
12879;BME280;20617;49.476;10.986;2023-08-06T05:27:17;97411.25;;;16.44;100.00
12879;BME280;20617;49.476;10.986;2023-08-06T05:29:22;97411.59;;;16.50;100.00
12879;BME280;20617;49.476;10.986;2023-08-06T05:31:29;97411.69;;;16.60;100.00
12879;BME280;20617;49.476;10.986;2023-08-06T05:33:33;97406.78;;;16.67;100.00
12879;BME280;20617;49.476;10.986;2023-08-06T05:35:40;97401.88;;;16.73;100.00
12879;BME280;20617;49.476;10.986;2023-08-06T05:37:45;97400.31;;;16.82;100.00
12879;BME280;20617;49.476;10.986;2023-08-06T05:39:48;97389.81;;;16.82;100.00
12879;BME280;20617;49.476;10.986;2023-08-06T05:41:53;97402.94;;;16.82;100.00
12879;BME280;20617;49.476;10.986;2023-08-06T05:44:00;97396.34;;;16.88;100.00
12879;BME280;20617;49.476;10.986;2023-08-06T05:46:05;97396.34;;;16.88;100.00
12879;BME280;20617;49.476;10.986;2023-08-06T05:48:12;97389.41;;;16.87;100.00
12879;BME280;20617;49.476;10.986;2023-08-06T05:50:14;97399.00;;;16.88;100.00
12879;BME280;20617;49.476;10.986;2023-08-06T05:52:20;97397.75;;;16.92;100.00
12879;BME280;20617;49.476;10.986;2023-08-06T05:54:25;97393.56;;;17.01;100.00
12879;BME280;20617;49.476;10.986;2023-08-06T05:56:44;97393.75;;;17.09;100.00
12879;BME280;20617;49.476;10.986;2023-08-06T05:58:50;97393.19;;;17.26;100.00
12879;BME280;20617;49.476;10.986;2023-08-06T06:00:58;97385.13;;;17.60;100.00
12879;BME280;20617;49.476;10.986;2023-08-06T06:03:04;97373.50;;;17.83;100.00
12879;BME280;20617;49.476;10.986;2023-08-06T06:05:09;97365.28;;;18.07;100.00
12879;BME280;20617;49.476;10.986;2023-08-06T06:07:15;97362.28;;;18.31;100.00
12879;BME280;20617;49.476;10.986;2023-08-06T06:09:23;97352.75;;;18.50;100.00
12879;BME280;20617;49.476;10.986;2023-08-06T06:11:28;97353.47;;;18.62;100.00
12879;BME280;20617;49.476;10.986;2023-08-06T06:13:35;97354.59;;;18.69;100.00
12879;BME280;20617;49.476;10.986;2023-08-06T06:15:42;97335.44;;;18.47;100.00
12879;BME280;20617;49.476;10.986;2023-08-06T06:17:50;97342.06;;;18.42;100.00
12879;BME280;20617;49.476;10.986;2023-08-06T06:19:55;97340.53;;;18.39;100.00
12879;BME280;20617;49.476;10.986;2023-08-06T06:22:00;97344.81;;;18.30;100.00
12879;BME280;20617;49.476;10.986;2023-08-06T06:24:05;97352.03;;;18.28;100.00
12879;BME280;20617;49.476;10.986;2023-08-06T06:26:10;97352.56;;;18.22;100.00
12879;BME280;20617;49.476;10.986;2023-08-06T06:28:15;97352.44;;;18.24;100.00
12879;BME280;20617;49.476;10.986;2023-08-06T06:30:21;97349.94;;;18.32;100.00
12879;BME280;20617;49.476;10.986;2023-08-06T06:32:26;97349.41;;;18.38;100.00
12879;BME280;20617;49.476;10.986;2023-08-06T06:34:34;97362.28;;;18.31;100.00
12879;BME280;20617;49.476;10.986;2023-08-06T06:36:39;97358.94;;;18.20;100.00
12879;BME280;20617;49.476;10.986;2023-08-06T06:38:44;97351.00;;;18.10;100.00
12879;BME280;20617;49.476;10.986;2023-08-06T06:40:56;97350.31;;;18.18;100.00
12879;BME280;20617;49.476;10.986;2023-08-06T06:43:01;97355.59;;;18.18;100.00
12879;BME280;20617;49.476;10.986;2023-08-06T06:45:08;97352.69;;;18.21;100.00
12879;BME280;20617;49.476;10.986;2023-08-06T06:47:14;97357.28;;;18.19;100.00
12879;BME280;20617;49.476;10.986;2023-08-06T06:49:26;97359.09;;;18.28;100.00
12879;BME280;20617;49.476;10.986;2023-08-06T06:51:34;97359.22;;;18.26;100.00
12879;BME280;20617;49.476;10.986;2023-08-06T06:53:41;97354.09;;;18.25;100.00
12879;BME280;20617;49.476;10.986;2023-08-06T06:55:46;97354.91;;;18.25;100.00
12879;BME280;20617;49.476;10.986;2023-08-06T06:57:51;97356.16;;;18.21;100.00
12879;BME280;20617;49.476;10.986;2023-08-06T06:59:56;97355.91;;;18.24;100.00
12879;BME280;20617;49.476;10.986;2023-08-06T07:02:01;97360.91;;;18.27;100.00
12879;BME280;20617;49.476;10.986;2023-08-06T07:04:06;97352.03;;;18.28;100.00
12879;BME280;20617;49.476;10.986;2023-08-06T07:06:11;97356.75;;;18.35;100.00
12879;BME280;20617;49.476;10.986;2023-08-06T07:08:20;97356.34;;;18.39;100.00
12879;BME280;20617;49.476;10.986;2023-08-06T07:10:25;97358.97;;;18.39;100.00
12879;BME280;20617;49.476;10.986;2023-08-06T07:12:31;97354.53;;;18.40;100.00
12879;BME280;20617;49.476;10.986;2023-08-06T07:14:36;97350.53;;;18.36;100.00
12879;BME280;20617;49.476;10.986;2023-08-06T07:16:43;97354.81;;;18.37;100.00
12879;BME280;20617;49.476;10.986;2023-08-06T07:18:48;97361.91;;;18.46;100.00
12879;BME280;20617;49.476;10.986;2023-08-06T07:20:53;97346.09;;;18.55;100.00
12879;BME280;20617;49.476;10.986;2023-08-06T07:22:58;97342.22;;;18.60;100.00
12879;BME280;20617;49.476;10.986;2023-08-06T07:25:06;97340.16;;;18.63;100.00
12879;BME280;20617;49.476;10.986;2023-08-06T07:27:13;97338.50;;;18.72;100.00
12879;BME280;20617;49.476;10.986;2023-08-06T07:29:18;97332.69;;;18.78;100.00
12879;BME280;20617;49.476;10.986;2023-08-06T07:31:32;97336.31;;;18.77;100.00
12879;BME280;20617;49.476;10.986;2023-08-06T07:33:38;97332.16;;;18.74;100.00
12879;BME280;20617;49.476;10.986;2023-08-06T07:35:43;97327.56;;;18.76;100.00
12879;BME280;20617;49.476;10.986;2023-08-06T07:37:48;97337.13;;;18.87;100.00
12879;BME280;20617;49.476;10.986;2023-08-06T07:39:53;97316.75;;;18.80;100.00
12879;BME280;20617;49.476;10.986;2023-08-06T07:42:01;97319.50;;;18.97;100.00
12879;BME280;20617;49.476;10.986;2023-08-06T07:44:07;97312.56;;;19.06;100.00
12879;BME280;20617;49.476;10.986;2023-08-06T07:46:14;97317.69;;;19.08;100.00
12879;BME280;20617;49.476;10.986;2023-08-06T07:48:20;97314.47;;;19.14;100.00
12879;BME280;20617;49.476;10.986;2023-08-06T07:50:26;97315.47;;;19.03;100.00
12879;BME280;20617;49.476;10.986;2023-08-06T07:52:31;97322.28;;;19.06;100.00
12879;BME280;20617;49.476;10.986;2023-08-06T07:54:36;97310.22;;;18.84;100.00
12879;BME280;20617;49.476;10.986;2023-08-06T07:56:41;97318.50;;;18.69;100.00
12879;BME280;20617;49.476;10.986;2023-08-06T07:58:49;97317.13;;;18.65;100.00
12879;BME280;20617;49.476;10.986;2023-08-06T08:00:56;97308.84;;;18.80;100.00
12879;BME280;20617;49.476;10.986;2023-08-06T08:03:04;97312.25;;;18.51;100.00
12879;BME280;20617;49.476;10.986;2023-08-06T08:05:09;97313.22;;;18.50;100.00
12879;BME280;20617;49.476;10.986;2023-08-06T08:07:12;97315.19;;;18.48;100.00
12879;BME280;20617;49.476;10.986;2023-08-06T08:09:17;97316.16;;;18.57;100.00
12879;BME280;20617;49.476;10.986;2023-08-06T08:11:22;97322.25;;;18.57;100.00
12879;BME280;20617;49.476;10.986;2023-08-06T08:13:27;97318.22;;;18.63;100.00
12879;BME280;20617;49.476;10.986;2023-08-06T08:15:35;97312.13;;;18.72;100.00
12879;BME280;20617;49.476;10.986;2023-08-06T08:17:40;97304.19;;;18.52;100.00
12879;BME280;20617;49.476;10.986;2023-08-06T08:19:45;97295.19;;;18.45;100.00
12879;BME280;20617;49.476;10.986;2023-08-06T08:21:50;97289.09;;;18.45;100.00
12879;BME280;20617;49.476;10.986;2023-08-06T08:24:00;97288.28;;;18.44;100.00
12879;BME280;20617;49.476;10.986;2023-08-06T08:26:05;97296.00;;;18.55;100.00
12879;BME280;20617;49.476;10.986;2023-08-06T08:28:10;97293.38;;;18.55;100.00
12879;BME280;20617;49.476;10.986;2023-08-06T08:30:15;97308.91;;;18.49;100.00
12879;BME280;20617;49.476;10.986;2023-08-06T08:32:22;97310.84;;;18.27;100.00
12879;BME280;20617;49.476;10.986;2023-08-06T08:34:28;97301.56;;;18.33;100.00
12879;BME280;20617;49.476;10.986;2023-08-06T08:36:32;97293.78;;;18.41;100.00
12879;BME280;20617;49.476;10.986;2023-08-06T08:38:40;97296.16;;;18.54;100.00
12879;BME280;20617;49.476;10.986;2023-08-06T08:40:46;97301.03;;;18.68;100.00
12879;BME280;20617;49.476;10.986;2023-08-06T08:42:52;97296.59;;;18.78;100.00
12879;BME280;20617;49.476;10.986;2023-08-06T08:45:12;97285.63;;;18.44;100.00
12879;BME280;20617;49.476;10.986;2023-08-06T08:47:18;97298.78;;;18.25;100.00
12879;BME280;20617;49.476;10.986;2023-08-06T08:49:26;97315.34;;;17.96;100.00
12879;BME280;20617;49.476;10.986;2023-08-06T08:51:33;97305.44;;;17.88;100.00
12879;BME280;20617;49.476;10.986;2023-08-06T08:53:40;97298.16;;;17.71;100.00
12879;BME280;20617;49.476;10.986;2023-08-06T08:55:49;97314.44;;;17.55;100.00
12879;BME280;20617;49.476;10.986;2023-08-06T08:57:54;97303.84;;;17.67;100.00
12879;BME280;20617;49.476;10.986;2023-08-06T08:59:59;97298.16;;;17.71;100.00
12879;BME280;20617;49.476;10.986;2023-08-06T09:02:09;97298.81;;;17.84;100.00
12879;BME280;20617;49.476;10.986;2023-08-06T09:04:16;97296.47;;;17.60;100.00
12879;BME280;20617;49.476;10.986;2023-08-06T09:06:25;97319.75;;;17.65;100.00
12879;BME280;20617;49.476;10.986;2023-08-06T09:08:34;97312.09;;;17.62;100.00
12879;BME280;20617;49.476;10.986;2023-08-06T09:10:41;97314.38;;;17.67;100.00
12879;BME280;20617;49.476;10.986;2023-08-06T09:12:51;97320.91;;;17.72;100.00
12879;BME280;20617;49.476;10.986;2023-08-06T09:14:56;97308.84;;;17.70;100.00
12879;BME280;20617;49.476;10.986;2023-08-06T09:17:01;97304.09;;;17.63;100.00
12879;BME280;20617;49.476;10.986;2023-08-06T09:19:07;97298.75;;;17.75;100.00
12879;BME280;20617;49.476;10.986;2023-08-06T09:21:14;97307.56;;;17.95;100.00
12879;BME280;20617;49.476;10.986;2023-08-06T09:23:27;97297.47;;;18.00;100.00
12879;BME280;20617;49.476;10.986;2023-08-06T09:25:33;97274.25;;;18.24;100.00
12879;BME280;20617;49.476;10.986;2023-08-06T09:27:40;97284.91;;;18.23;100.00
12879;BME280;20617;49.476;10.986;2023-08-06T09:29:45;97279.34;;;18.06;100.00
12879;BME280;20617;49.476;10.986;2023-08-06T09:31:50;97288.63;;;18.20;100.00
12879;BME280;20617;49.476;10.986;2023-08-06T09:33:59;97281.38;;;18.03;100.00
12879;BME280;20617;49.476;10.986;2023-08-06T09:36:08;97286.63;;;17.93;100.00
12879;BME280;20617;49.476;10.986;2023-08-06T09:38:10;97288.00;;;17.87;100.00
12879;BME280;20617;49.476;10.986;2023-08-06T09:40:29;97284.56;;;17.97;100.00
12879;BME280;20617;49.476;10.986;2023-08-06T09:42:36;97287.91;;;18.08;100.00
12879;BME280;20617;49.476;10.986;2023-08-06T09:44:42;97285.38;;;17.87;100.00
12879;BME280;20617;49.476;10.986;2023-08-06T09:46:47;97293.16;;;17.89;100.00
12879;BME280;20617;49.476;10.986;2023-08-06T09:48:50;97289.03;;;17.75;100.00
12879;BME280;20617;49.476;10.986;2023-08-06T09:50:55;97282.28;;;17.82;100.00
12879;BME280;20617;49.476;10.986;2023-08-06T09:53:02;97278.75;;;17.93;100.00
12879;BME280;20617;49.476;10.986;2023-08-06T09:55:08;97294.28;;;18.06;100.00
12879;BME280;20617;49.476;10.986;2023-08-06T09:57:18;97281.81;;;17.98;100.00
12879;BME280;20617;49.476;10.986;2023-08-06T09:59:25;97272.81;;;17.70;100.00
12879;BME280;20617;49.476;10.986;2023-08-06T10:01:32;97278.50;;;17.75;100.00
12879;BME280;20617;49.476;10.986;2023-08-06T10:03:40;97270.41;;;17.88;100.00
12879;BME280;20617;49.476;10.986;2023-08-06T10:05:48;97258.00;;;18.19;100.00
12879;BME280;20617;49.476;10.986;2023-08-06T10:07:55;97257.16;;;18.67;100.00
12879;BME280;20617;49.476;10.986;2023-08-06T10:10:04;97239.72;;;18.86;100.00
12879;BME280;20617;49.476;10.986;2023-08-06T10:12:17;97232.16;;;19.20;100.00
12879;BME280;20617;49.476;10.986;2023-08-06T10:14:33;97232.09;;;19.30;100.00
12879;BME280;20617;49.476;10.986;2023-08-06T10:16:41;97233.44;;;19.06;100.00
12879;BME280;20617;49.476;10.986;2023-08-06T10:18:47;97231.38;;;18.90;100.00
12879;BME280;20617;49.476;10.986;2023-08-06T10:20:54;97224.75;;;18.76;100.00
12879;BME280;20617;49.476;10.986;2023-08-06T10:23:03;97223.63;;;18.60;100.00
12879;BME280;20617;49.476;10.986;2023-08-06T10:25:09;97219.75;;;18.54;100.00
12879;BME280;20617;49.476;10.986;2023-08-06T10:27:12;97233.72;;;18.35;100.00
12879;BME280;20617;49.476;10.986;2023-08-06T10:29:38;97230.44;;;18.33;100.00
12879;BME280;20617;49.476;10.986;2023-08-06T10:31:58;97230.84;;;18.48;100.00
12879;BME280;20617;49.476;10.986;2023-08-06T10:34:04;97228.59;;;18.43;100.00
12879;BME280;20617;49.476;10.986;2023-08-06T10:36:14;97225.81;;;18.35;100.00
12879;BME280;20617;49.476;10.986;2023-08-06T10:38:21;97230.69;;;18.40;100.00
12879;BME280;20617;49.476;10.986;2023-08-06T10:40:29;97229.44;;;18.44;100.00
12879;BME280;20617;49.476;10.986;2023-08-06T10:42:35;97211.00;;;18.53;100.00
12879;BME280;20617;49.476;10.986;2023-08-06T10:44:49;97217.66;;;18.58;100.00
12879;BME280;20617;49.476;10.986;2023-08-06T10:47:26;97218.78;;;18.45;100.00
12879;BME280;20617;49.476;10.986;2023-08-06T10:49:36;97215.03;;;18.48;100.00
12879;BME280;20617;49.476;10.986;2023-08-06T10:51:43;97228.75;;;18.51;100.00
12879;BME280;20617;49.476;10.986;2023-08-06T10:53:50;97200.16;;;18.47;100.00
12879;BME280;20617;49.476;10.986;2023-08-06T10:55:57;97211.97;;;18.43;100.00